createdAt,value
2023-08-28T00:00:49.093Z,21.90
2023-08-28T00:06:02.779Z,21.80
2023-08-28T00:11:02.224Z,21.62
2023-08-28T00:16:01.907Z,21.50
2023-08-28T00:21:04.286Z,21.40
2023-08-28T00:26:03.371Z,21.40
2023-08-28T00:31:05.112Z,21.30
2023-08-28T00:36:05.184Z,21.30
2023-08-28T00:41:06.105Z,21.30
2023-08-28T00:46:06.844Z,21.30
2023-08-28T00:51:07.381Z,21.20
2023-08-28T00:56:07.161Z,21.20
2023-08-28T01:01:06.756Z,21.14
2023-08-28T01:06:25.076Z,21.10
2023-08-28T01:11:36.464Z,20.90
2023-08-28T01:16:38.814Z,20.70
2023-08-28T01:21:40.917Z,20.50
2023-08-28T01:26:40.198Z,20.20
2023-08-28T01:31:39.253Z,20.00
2023-08-28T01:36:49.773Z,19.80
2023-08-28T01:41:49.917Z,19.70
2023-08-28T01:46:51.023Z,19.60
2023-08-28T01:51:50.436Z,19.50
2023-08-28T01:56:50.641Z,19.30
2023-08-28T02:01:50.450Z,19.20
2023-08-28T02:06:49.740Z,19.10
2023-08-28T02:11:50.568Z,18.94
2023-08-28T02:16:49.518Z,18.90
2023-08-28T02:21:49.213Z,18.80
2023-08-28T02:26:47.969Z,18.80
2023-08-28T02:31:46.821Z,18.70
2023-08-28T02:36:45.827Z,18.64
2023-08-28T02:41:45.910Z,18.60
2023-08-28T02:46:46.453Z,18.60
2023-08-28T02:51:45.909Z,18.58
2023-08-28T02:56:44.682Z,18.52
2023-08-28T03:01:44.311Z,18.50
2023-08-28T03:06:43.893Z,18.50
2023-08-28T03:11:43.417Z,18.50
2023-08-28T03:16:43.111Z,18.50
2023-08-28T03:21:43.225Z,18.46
2023-08-28T03:26:43.102Z,18.40
2023-08-28T03:31:42.825Z,18.40
2023-08-28T03:36:44.370Z,18.40
2023-08-28T03:41:44.199Z,18.30
2023-08-28T03:46:48.055Z,18.30
2023-08-28T03:51:47.737Z,18.20
2023-08-28T03:56:47.132Z,18.20
2023-08-28T04:01:46.081Z,18.20
2023-08-28T04:06:45.811Z,18.12
2023-08-28T04:11:45.846Z,18.20
2023-08-28T04:16:45.500Z,18.20
2023-08-28T04:21:45.401Z,18.20
2023-08-28T04:26:46.398Z,18.20
2023-08-28T04:31:46.326Z,18.20
2023-08-28T04:36:48.258Z,18.20
2023-08-28T04:41:48.103Z,18.20
2023-08-28T04:46:48.942Z,18.20
2023-08-28T04:51:48.325Z,18.30
2023-08-28T04:56:48.204Z,18.30
2023-08-28T05:01:48.505Z,18.40
2023-08-28T05:06:48.757Z,18.48
2023-08-28T05:11:47.786Z,18.50
2023-08-28T05:16:47.158Z,18.60
2023-08-28T05:21:47.685Z,18.60
2023-08-28T05:26:47.131Z,18.60
2023-08-28T05:31:47.141Z,18.60
2023-08-28T05:36:47.356Z,18.60
2023-08-28T05:41:47.334Z,18.70
2023-08-28T05:46:48.336Z,18.70
2023-08-28T05:51:48.692Z,18.70
2023-08-28T05:56:50.248Z,18.70
2023-08-28T06:02:10.640Z,18.70
2023-08-28T06:07:20.072Z,18.70
2023-08-28T06:12:26.329Z,18.70
2023-08-28T06:17:34.211Z,18.70
2023-08-28T06:22:34.489Z,18.80
2023-08-28T06:27:34.993Z,18.90
2023-08-28T06:32:35.054Z,19.10
2023-08-28T06:37:34.626Z,19.20
2023-08-28T06:42:35.986Z,19.30
2023-08-28T06:47:41.800Z,19.30
2023-08-28T06:52:43.170Z,19.40
2023-08-28T06:57:55.649Z,19.50
2023-08-28T07:02:57.280Z,19.50
2023-08-28T07:07:57.972Z,19.70
2023-08-28T07:12:57.936Z,19.80
2023-08-28T07:17:59.371Z,19.92
2023-08-28T07:22:59.434Z,20.20
2023-08-28T07:27:58.783Z,20.40
2023-08-28T07:32:59.147Z,20.50
2023-08-28T07:37:59.785Z,20.60
2023-08-28T07:42:59.672Z,20.70
2023-08-28T07:48:02.196Z,20.90
2023-08-28T07:53:02.319Z,21.00
2023-08-28T07:58:07.023Z,21.10
2023-08-28T08:03:08.248Z,21.20
2023-08-28T08:08:09.968Z,21.30
2023-08-28T08:13:11.161Z,21.40
2023-08-28T08:18:11.466Z,21.60
2023-08-28T08:23:11.791Z,21.70
2023-08-28T08:28:14.097Z,21.90
2023-08-28T08:33:15.107Z,22.00
2023-08-28T08:38:17.391Z,22.10
2023-08-28T08:43:17.681Z,22.10
2023-08-28T08:48:44.635Z,22.20
2023-08-28T08:54:06.339Z,22.20
2023-08-28T08:59:07.869Z,22.40
2023-08-28T09:04:08.650Z,22.54
2023-08-28T09:09:09.945Z,22.60
2023-08-28T09:14:09.230Z,22.60
2023-08-28T09:19:09.642Z,22.50
2023-08-28T09:24:13.756Z,22.40
2023-08-28T09:29:15.503Z,22.50
2023-08-28T09:34:18.762Z,22.70
2023-08-28T09:39:18.697Z,22.70
2023-08-28T09:44:21.598Z,22.70
2023-08-28T09:49:20.715Z,22.50
2023-08-28T09:54:25.187Z,22.50
2023-08-28T09:59:30.768Z,22.40
2023-08-28T10:04:31.320Z,22.30
2023-08-28T10:09:35.911Z,22.20
2023-08-28T10:14:36.590Z,22.20
2023-08-28T10:19:49.905Z,22.20
2023-08-28T10:24:51.938Z,22.20
2023-08-28T10:29:54.460Z,22.30
2023-08-28T10:34:55.409Z,22.40
2023-08-28T10:40:08.129Z,22.66
2023-08-28T10:45:13.118Z,22.82
2023-08-28T10:50:15.517Z,23.10
2023-08-28T10:55:21.246Z,23.30
2023-08-28T11:00:30.373Z,23.40
2023-08-28T11:05:30.274Z,23.46
2023-08-28T11:10:30.890Z,23.70
2023-08-28T11:15:37.326Z,23.90
2023-08-28T11:20:41.798Z,24.20
2023-08-28T11:25:45.661Z,24.20
2023-08-28T11:30:46.125Z,24.00
2023-08-28T11:35:45.681Z,23.70
2023-08-28T11:41:57.524Z,23.60
2023-08-28T11:47:01.475Z,23.70
2023-08-28T11:52:02.356Z,23.90
2023-08-28T11:57:10.333Z,24.20
2023-08-28T12:02:12.263Z,24.40
2023-08-28T12:07:23.388Z,24.50
2023-08-28T12:12:24.280Z,24.50
2023-08-28T12:17:27.718Z,24.50
2023-08-28T12:22:27.148Z,24.70
2023-08-28T12:27:31.814Z,24.80
2023-08-28T12:32:34.145Z,24.70
2023-08-28T12:37:42.151Z,24.66
2023-08-28T12:42:44.773Z,24.50
2023-08-28T12:47:45.697Z,24.40
2023-08-28T12:52:45.493Z,24.20
2023-08-28T12:57:45.080Z,23.90
2023-08-28T13:02:44.721Z,23.50
2023-08-28T13:07:44.356Z,23.20
2023-08-28T13:12:43.666Z,23.10
2023-08-28T13:17:43.304Z,23.00
2023-08-28T13:22:42.895Z,22.80
2023-08-28T13:27:44.821Z,22.80
2023-08-28T13:32:47.806Z,22.70
2023-08-28T13:37:47.240Z,22.60
2023-08-28T13:42:47.161Z,22.60
2023-08-28T13:47:47.369Z,22.50
2023-08-28T13:52:46.441Z,22.50
2023-08-28T13:57:46.969Z,22.52
2023-08-28T14:02:49.003Z,22.60
2023-08-28T14:07:48.463Z,22.70
2023-08-28T14:12:48.093Z,22.70
2023-08-28T14:17:47.438Z,22.70
2023-08-28T14:22:47.298Z,22.80
2023-08-28T14:27:55.210Z,22.80
2023-08-28T14:32:56.384Z,22.80
2023-08-28T14:37:55.419Z,22.80
2023-08-28T14:42:55.093Z,22.90
2023-08-28T14:47:55.185Z,22.90
2023-08-28T14:52:55.000Z,22.90
2023-08-28T14:57:54.868Z,22.90
2023-08-28T15:03:03.419Z,22.90
2023-08-28T15:08:15.745Z,22.88
2023-08-28T15:13:19.368Z,22.80
2023-08-28T15:18:20.197Z,22.80
2023-08-28T15:23:20.035Z,22.80
2023-08-28T15:28:19.655Z,22.70
2023-08-28T15:33:19.708Z,22.70
2023-08-28T15:38:19.597Z,22.70
2023-08-28T15:43:19.663Z,22.60
2023-08-28T15:48:19.003Z,22.60
2023-08-28T15:53:20.744Z,22.60
2023-08-28T15:58:31.142Z,22.52
2023-08-28T16:03:32.022Z,22.50
2023-08-28T16:08:32.104Z,22.50
2023-08-28T16:13:33.560Z,22.48
2023-08-28T16:18:33.392Z,22.40
2023-08-28T16:23:33.291Z,22.40
2023-08-28T16:28:33.504Z,22.40
2023-08-28T16:33:33.386Z,22.34
2023-08-28T16:38:32.786Z,22.30
2023-08-28T16:44:36.605Z,22.24
2023-08-28T16:49:40.608Z,22.20
2023-08-28T16:54:41.437Z,22.10
2023-08-28T17:07:37.544Z,22.00
2023-08-28T17:13:21.797Z,22.00
2023-08-28T17:18:53.344Z,22.00
2023-08-28T17:23:55.189Z,21.94
2023-08-28T17:29:16.232Z,21.90
2023-08-28T17:34:26.580Z,21.90
2023-08-28T17:39:32.045Z,21.80
2023-08-28T17:44:32.653Z,21.80
2023-08-28T17:49:49.108Z,21.72
2023-08-28T17:55:03.856Z,21.70
2023-08-28T18:00:19.164Z,21.70
2023-08-28T18:05:20.120Z,21.70
2023-08-28T18:10:19.666Z,21.60
2023-08-28T18:15:19.859Z,21.60
2023-08-28T18:20:21.568Z,21.60
2023-08-28T18:25:22.353Z,21.60
2023-08-28T18:30:21.906Z,21.54
2023-08-28T18:35:22.225Z,21.50
2023-08-28T18:40:22.273Z,21.50
2023-08-28T18:45:21.885Z,21.50
2023-08-28T18:50:22.378Z,21.48
2023-08-28T18:55:32.396Z,21.40
2023-08-28T19:01:13.048Z,21.40
2023-08-28T19:06:33.215Z,21.40
2023-08-28T19:11:36.222Z,21.30
2023-08-28T19:16:39.650Z,21.30
2023-08-28T19:21:45.271Z,21.30
2023-08-28T19:26:45.111Z,21.20
2023-08-28T19:31:58.306Z,21.10
2023-08-28T19:37:26.368Z,21.10
2023-08-28T19:42:40.534Z,21.00
2023-08-28T19:48:04.500Z,21.00
2023-08-28T19:53:13.130Z,21.00
2023-08-28T19:58:36.872Z,20.90
2023-08-28T20:03:41.674Z,20.90
2023-08-28T20:08:45.194Z,20.90
2023-08-28T20:13:49.356Z,20.90
2023-08-28T20:18:49.596Z,20.80
2023-08-28T20:23:50.933Z,20.80
2023-08-28T20:28:51.185Z,20.80
2023-08-28T20:33:51.339Z,20.80
2023-08-28T20:38:53.220Z,20.70
2023-08-28T20:43:52.988Z,20.70
2023-08-28T20:48:55.230Z,20.70
2023-08-28T20:54:20.337Z,20.70
2023-08-28T20:59:25.428Z,20.70
2023-08-28T21:04:26.080Z,20.70
2023-08-28T21:09:26.067Z,20.70
2023-08-28T21:15:07.015Z,20.70
2023-08-28T21:21:46.970Z,20.60
2023-08-28T21:27:27.441Z,20.60
2023-08-28T21:33:52.988Z,20.60
2023-08-28T21:39:05.009Z,20.60
2023-08-28T21:44:10.701Z,20.60
2023-08-28T21:49:14.707Z,20.60
2023-08-28T21:54:34.035Z,20.60
2023-08-28T21:59:52.772Z,20.60
2023-08-28T22:05:12.480Z,20.60
2023-08-28T22:10:13.754Z,20.60
2023-08-28T22:15:16.892Z,20.64
2023-08-28T22:20:20.143Z,20.70
2023-08-28T22:25:20.165Z,20.70
2023-08-28T22:31:04.730Z,20.70
2023-08-28T22:43:33.646Z,20.70
2023-08-28T22:49:15.440Z,20.70
2023-08-28T22:55:26.735Z,20.70
2023-08-28T23:06:52.649Z,20.70
2023-08-28T23:11:56.495Z,20.76
2023-08-28T23:16:55.826Z,20.76
2023-08-28T23:21:55.152Z,20.80
2023-08-28T23:26:55.936Z,20.80
2023-08-28T23:31:54.946Z,20.80
2023-08-28T23:36:54.028Z,20.80
2023-08-28T23:41:53.244Z,20.78
2023-08-28T23:46:53.099Z,20.76
2023-08-28T23:51:52.549Z,20.72
2023-08-28T23:56:52.912Z,20.70
